Time;durP1;ratioP1;P1;durP2;ratioP2;P2;SDS_P1;SDS_P2;PMS_P1;PMS_P2;Temp;Humidity;BMP_temperature;BMP_pressure;BME280_temperature;BME280_humidity;BME280_pressure;Samples;Min_cycle;Max_cycle;Signal;HPM_P1;HPM_P2
2022/08/21 00:00:17;;;;;;;8.70;7.85;;;;;;;22.87;72.19;99874.03;6041082;23;97062;-79
2022/08/21 00:03:01;;;;;;;8.23;7.28;;;;;;;22.77;72.12;99862.47;6040972;23;97445;-79
2022/08/21 00:05:27;;;;;;;8.57;7.10;;;;;;;22.88;72.25;99874.88;6040736;23;101190;-76
2022/08/21 00:07:53;;;;;;;11.13;8.00;;;;;;;22.89;72.18;99869.34;6042096;23;97351;-77
2022/08/21 00:10:19;;;;;;;9.23;7.97;;;;;;;22.77;72.85;99862.47;6041360;23;97205;-79
2022/08/21 00:12:45;;;;;;;8.32;7.53;;;;;;;22.72;72.82;99844.19;6065104;23;97052;-77
2022/08/21 00:15:15;;;;;;;8.25;7.45;;;;;;;22.79;72.60;99861.34;6016705;23;101114;-79
2022/08/21 00:17:40;;;;;;;9.93;8.13;;;;;;;22.78;72.59;99856.16;6040322;23;98341;-80
2022/08/21 00:20:08;;;;;;;8.82;7.93;;;;;;;22.87;72.05;99857.97;6066485;23;97021;-77
2022/08/21 00:22:35;;;;;;;10.07;7.75;;;;;;;22.82;71.93;99858.38;6064965;23;96777;-76
2022/08/21 00:25:02;;;;;;;10.43;8.15;;;;;;;22.71;72.38;99863.03;6039414;23;101333;-79
2022/08/21 00:27:27;;;;;;;9.23;8.20;;;;;;;22.73;72.17;99858.41;6041338;23;101069;-76
2022/08/21 00:29:53;;;;;;;12.10;8.48;;;;;;;22.74;72.14;99854.72;6066187;23;96652;-80
2022/08/21 00:32:22;;;;;;;8.75;7.60;;;;;;;22.76;72.22;99852.75;6041374;23;97465;-79
2022/08/21 00:34:48;;;;;;;9.00;7.85;;;;;;;22.65;72.40;99829.66;6041256;23;97448;-80
2022/08/21 00:37:13;;;;;;;7.95;7.18;;;;;;;22.73;72.23;99845.84;6040892;23;100317;-80
2022/08/21 00:39:39;;;;;;;9.07;8.20;;;;;;;22.72;72.40;99852.22;6040655;23;96659;-79
2022/08/21 00:42:04;;;;;;;8.40;7.60;;;;;;;22.66;72.43;99844.75;6041383;23;96795;-80
2022/08/21 00:44:30;;;;;;;9.10;7.80;;;;;;;22.67;72.55;99849.09;6040577;23;98052;-78
2022/08/21 00:46:57;;;;;;;8.50;7.55;;;;;;;22.63;72.60;99842.38;6040822;23;100802;-77
2022/08/21 00:49:22;;;;;;;7.50;6.70;;;;;;;22.54;73.17;99849.41;6041950;23;97124;-77
2022/08/21 00:51:53;;;;;;;6.93;6.32;;;;;;;22.62;72.67;99845.16;6040534;23;97434;-79
2022/08/21 00:54:22;;;;;;;7.10;6.38;;;;;;;22.54;72.54;99835.16;6041465;23;101079;-80
2022/08/21 00:56:53;;;;;;;7.25;6.32;;;;;;;22.65;72.59;99855.56;6040493;23;97776;-79
2022/08/21 00:59:18;;;;;;;;;;;;;;;22.52;73.01;99854.03;6017647;23;96956;-77
2022/08/21 01:01:44;;;;;;;7.55;6.63;;;;;;;22.51;72.77;99849.66;6040672;23;97132;-79
2022/08/21 01:04:11;;;;;;;7.20;6.32;;;;;;;22.52;72.57;99838.00;6040698;23;101050;-80
2022/08/21 01:06:36;;;;;;;9.52;6.47;;;;;;;22.60;72.25;99854.19;6039541;23;100688;-81
2022/08/21 01:09:02;;;;;;;7.32;5.97;;;;;;;22.49;72.65;99848.13;6041308;23;96612;-79
2022/08/21 01:11:28;;;;;;;9.23;6.40;;;;;;;22.49;72.89;99846.28;6041224;23;97032;-75
2022/08/21 01:13:54;;;;;;;8.55;6.72;;;;;;;22.44;72.54;99829.81;6040980;23;101606;-80
2022/08/21 01:16:21;;;;;;;8.90;6.53;;;;;;;22.44;72.41;99828.97;6040087;23;100903;-79
2022/08/21 01:18:47;;;;;;;9.43;6.68;;;;;;;22.28;72.64;99814.34;6091203;23;97029;-80
2022/08/21 01:21:16;;;;;;;7.47;6.68;;;;;;;22.41;72.71;99822.06;6041842;23;96781;-80
2022/08/21 01:23:45;;;;;;;10.30;6.82;;;;;;;22.40;72.65;99822.19;6039627;23;101463;-79
2022/08/21 01:26:11;;;;;;;8.40;6.85;;;;;;;22.38;72.53;99814.34;6040565;23;100771;-78
2022/08/21 01:28:42;;;;;;;8.02;6.55;;;;;;;22.32;72.47;99801.53;6063975;23;96638;-80
2022/08/21 01:31:09;;;;;;;7.10;6.45;;;;;;;22.33;72.40;99803.22;6033398;23;96692;-80
2022/08/21 01:33:35;;;;;;;6.68;5.70;;;;;;;22.29;72.28;99791.13;5987252;23;100876;-80
2022/08/21 01:36:00;;;;;;;7.30;5.50;;;;;;;22.28;72.55;99797.44;5987851;23;101269;-78
2022/08/21 01:38:26;;;;;;;6.60;5.53;;;;;;;22.27;72.10;99787.72;6012606;23;97163;-81
2022/08/21 01:40:52;;;;;;;5.70;4.93;;;;;;;22.30;72.04;99782.94;6011157;23;97581;-77
2022/08/21 01:43:18;;;;;;;5.10;4.50;;;;;;;22.25;72.16;99784.34;6012385;23;98405;-77
2022/08/21 01:45:43;;;;;;;5.40;4.85;;;;;;;22.16;72.29;99767.28;6035219;23;100783;-76
2022/08/21 01:48:09;;;;;;;6.30;5.35;;;;;;;22.19;72.17;99779.56;5988984;23;97142;-77
2022/08/21 01:50:35;;;;;;;6.60;4.75;;;;;;;22.23;72.02;99787.19;6011578;23;97136;-80
2022/08/21 01:53:00;;;;;;;5.18;4.45;;;;;;;22.05;72.03;99772.75;6035833;23;97395;-79
2022/08/21 01:55:26;;;;;;;4.65;4.25;;;;;;;22.21;71.96;99793.66;6011880;23;98334;-79
2022/08/21 01:57:52;;;;;;;5.05;4.60;;;;;;;22.11;71.89;99782.94;6011223;23;96728;-80
2022/08/21 02:00:22;;;;;;;4.25;3.85;;;;;;;22.12;71.73;99788.13;6012421;23;96653;-78
2022/08/21 02:02:48;;;;;;;3.90;3.60;;;;;;;22.06;71.88;99793.19;6011096;23;101291;-77
2022/08/21 02:05:14;;;;;;;5.18;4.35;;;;;;;22.11;72.16;99797.13;5988312;23;101487;-79
2022/08/21 02:07:42;;;;;;;4.30;3.42;;;;;;;22.14;71.97;99796.00;5987478;23;96628;-79
2022/08/21 02:10:09;;;;;;;4.13;3.65;;;;;;;22.12;71.85;99796.13;6036918;23;96898;-78
2022/08/21 02:12:35;;;;;;;3.95;3.58;;;;;;;22.06;72.02;99788.66;6010324;23;99717;-78
2022/08/21 02:15:00;;;;;;;3.50;3.20;;;;;;;22.00;72.37;99788.38;5988079;23;101888;-79
2022/08/21 02:17:26;;;;;;;3.53;2.70;;;;;;;21.97;72.00;99794.00;6011090;23;96768;-78
2022/08/21 02:19:52;;;;;;;3.10;2.70;;;;;;;21.98;72.08;99788.50;6011666;23;96832;-79
2022/08/21 02:22:17;;;;;;;2.97;2.40;;;;;;;21.95;72.19;99788.78;5987345;23;100911;-76
2022/08/21 02:24:43;;;;;;;2.35;2.15;;;;;;;21.99;71.65;99784.88;6011201;23;100738;-76
2022/08/21 02:27:09;;;;;;;3.55;2.45;;;;;;;21.96;71.83;99785.13;6011158;23;97009;-79
2022/08/21 02:29:34;;;;;;;2.75;2.10;;;;;;;21.93;71.85;99772.91;6011500;23;97085;-78
2022/08/21 02:32:00;;;;;;;3.00;2.20;;;;;;;21.95;71.80;99772.75;6052840;23;98627;-77
2022/08/21 02:34:25;;;;;;;2.53;2.30;;;;;;;21.95;71.92;99763.91;6065032;23;100741;-76
2022/08/21 02:36:51;;;;;;;2.80;2.42;;;;;;;21.90;71.92;99759.84;6040085;23;97081;-79
2022/08/21 02:39:16;;;;;;;2.53;2.30;;;;;;;21.88;72.24;99766.28;6016891;23;97635;-80
2022/08/21 02:41:42;;;;;;;2.47;2.28;;;;;;;21.78;72.15;99760.91;6038901;23;97491;-79
2022/08/21 02:44:07;;;;;;;2.00;1.80;;;;;;;21.86;71.96;99754.91;6016559;23;100391;-80
2022/08/21 02:46:33;;;;;;;2.13;1.92;;;;;;;21.83;71.83;99757.84;6039972;23;97249;-79
2022/08/21 02:48:58;;;;;;;2.35;2.00;;;;;;;21.73;72.24;99752.50;6041320;23;96686;-79
2022/08/21 02:51:24;;;;;;;3.25;2.00;;;;;;;21.66;72.03;99740.66;6041426;23;100702;-75
2022/08/21 02:53:50;;;;;;;1.85;1.75;;;;;;;21.70;72.13;99750.09;6040712;23;100925;-79
2022/08/21 02:56:18;;;;;;;2.83;1.90;;;;;;;21.72;72.10;99736.59;6041465;23;96873;-76
2022/08/21 02:58:47;;;;;;;2.55;2.08;;;;;;;21.83;72.04;99755.16;6042020;23;96772;-79
2022/08/21 03:01:13;;;;;;;2.17;1.77;;;;;;;21.77;72.14;99758.41;6065057;23;101545;-80
2022/08/21 03:03:41;;;;;;;3.85;2.00;;;;;;;21.53;72.40;99734.72;6064834;23;97268;-78
2022/08/21 03:06:08;;;;;;;2.03;1.80;;;;;;;21.72;72.29;99761.47;6041213;23;96852;-79
2022/08/21 03:08:33;;;;;;;3.97;2.30;;;;;;;21.76;72.09;99765.56;6042051;23;96914;-79
2022/08/21 03:11:00;;;;;;;2.90;2.10;;;;;;;21.74;72.02;99767.53;6065151;23;97830;-80
2022/08/21 03:13:27;;;;;;;2.28;2.08;;;;;;;21.58;72.19;99757.34;6041999;23;97895;-79
2022/08/21 03:15:52;;;;;;;2.58;2.17;;;;;;;21.62;72.08;99780.16;6065577;23;97051;-80
2022/08/21 03:18:18;;;;;;;2.10;1.90;;;;;;;21.54;72.23;99757.78;6066592;23;97052;-80
2022/08/21 03:20:44;;;;;;;4.50;2.63;;;;;;;21.56;72.20;99761.16;6064938;23;97899;-79
2022/08/21 03:23:11;;;;;;;2.63;2.17;;;;;;;21.53;72.45;99772.13;6018057;23;100413;-79
2022/08/21 03:25:37;;;;;;;4.30;2.05;;;;;;;21.63;72.06;99773.81;6066080;23;96913;-75
2022/08/21 03:28:05;;;;;;;3.13;1.92;;;;;;;21.70;72.05;99768.78;6041763;23;96741;-76
2022/08/21 03:30:33;;;;;;;6.35;2.17;;;;;;;21.63;72.21;99773.81;6015743;23;99297;-76
2022/08/21 03:32:59;;;;;;;3.90;2.28;;;;;;;21.63;72.01;99772.97;6066045;23;97343;-79
2022/08/21 03:35:26;;;;;;;2.20;2.00;;;;;;;21.44;72.75;99771.09;6041928;23;97252;-79
2022/08/21 03:37:52;;;;;;;2.10;1.88;;;;;;;21.59;72.25;99776.91;6041037;23;96711;-78
2022/08/21 03:40:18;;;;;;;2.50;1.80;;;;;;;21.54;72.52;99773.78;6041389;23;101402;-76
2022/08/21 03:42:46;;;;;;;2.20;1.98;;;;;;;21.58;72.26;99778.72;6040772;23;97328;-76
2022/08/21 03:45:14;;;;;;;2.00;1.80;;;;;;;21.54;72.52;99776.47;6092517;23;96883;-76
2022/08/21 03:48:08;;;;;;;2.35;1.88;;;;;;;21.52;72.08;99789.94;6041808;23;96963;-77
2022/08/21 03:50:37;;;;;;;2.10;1.90;;;;;;;21.33;72.68;99780.00;6065624;23;97496;-79
2022/08/21 03:53:02;;;;;;;2.22;2.00;;;;;;;21.37;72.66;99796.63;6041191;23;97727;-79
2022/08/21 03:55:28;;;;;;;1.95;1.80;;;;;;;21.38;72.57;99788.50;6040495;23;97303;-79
2022/08/21 03:57:54;;;;;;;2.63;1.90;;;;;;;21.34;72.41;99786.19;6041061;23;97283;-79
2022/08/21 04:00:20;;;;;;;3.33;2.00;;;;;;;21.38;72.66;99784.97;6065330;23;97298;-78
2022/08/21 04:02:46;;;;;;;1.83;1.58;;;;;;;21.41;72.50;99790.91;6016445;23;101160;-79
2022/08/21 04:05:12;;;;;;;1.95;1.35;;;;;;;21.34;72.56;99778.19;6041985;23;97060;-76
2022/08/21 04:07:38;;;;;;;1.70;1.60;;;;;;;21.41;72.39;99793.56;6064848;23;97049;-79
2022/08/21 04:10:06;;;;;;;1.77;1.65;;;;;;;21.36;72.86;99797.59;6015683;23;100912;-80
2022/08/21 04:12:31;;;;;;;1.80;1.70;;;;;;;21.30;72.93;99793.63;6041584;23;98271;-77
2022/08/21 04:14:57;;;;;;;2.60;1.80;;;;;;;21.33;72.88;99796.03;6065580;23;97046;-79
2022/08/21 04:17:22;;;;;;;1.88;1.65;;;;;;;21.36;72.86;99789.56;6041417;23;97108;-80
2022/08/21 04:19:48;;;;;;;2.60;1.70;;;;;;;21.44;72.50;99803.97;6090336;23;97375;-76
2022/08/21 04:22:15;;;;;;;1.83;1.50;;;;;;;21.40;72.63;99799.03;6065454;23;97393;-78
2022/08/21 04:24:40;;;;;;;3.33;1.75;;;;;;;21.40;72.70;99796.34;6065596;23;96732;-79
2022/08/21 04:27:06;;;;;;;2.72;1.60;;;;;;;21.35;72.67;99778.06;6040701;23;96781;-79
2022/08/21 04:29:31;;;;;;;1.70;1.60;;;;;;;21.30;72.91;99788.28;6065313;23;101208;-79
2022/08/21 04:31:57;;;;;;;1.70;1.40;;;;;;;21.36;72.91;99786.91;6040134;23;101213;-79
2022/08/21 04:34:22;;;;;;;2.35;1.50;;;;;;;21.37;72.31;99794.78;6017517;23;96961;-79
2022/08/21 04:36:48;;;;;;;1.83;1.60;;;;;;;21.41;72.43;99795.38;6040497;23;96765;-79
2022/08/21 04:39:13;;;;;;;1.67;1.58;;;;;;;21.35;72.56;99795.88;6041399;23;100842;-79
2022/08/21 04:41:39;;;;;;;1.73;1.63;;;;;;;21.32;72.47;99789.00;6040641;23;100961;-79
2022/08/21 04:44:04;;;;;;;1.35;1.25;;;;;;;21.24;72.48;99794.16;6040430;23;96618;-79
2022/08/21 04:46:30;;;;;;;1.98;1.55;;;;;;;21.35;72.67;99810.09;6040579;23;96753;-78
2022/08/21 04:48:55;;;;;;;2.20;1.70;;;;;;;21.15;72.69;99801.13;6040751;23;97907;-78
2022/08/21 04:51:27;;;;;;;2.80;1.38;;;;;;;21.24;72.78;99821.69;6065415;23;97212;-79
2022/08/21 04:53:58;;;;;;;1.52;1.42;;;;;;;21.19;72.93;99807.06;6040499;23;97022;-79
2022/08/21 04:56:28;;;;;;;1.83;1.73;;;;;;;21.24;73.04;99804.84;6041298;23;97163;-79
2022/08/21 04:58:56;;;;;;;2.47;1.30;;;;;;;21.33;72.75;99808.53;6040846;23;100700;-79
2022/08/21 05:01:24;;;;;;;1.70;1.17;;;;;;;21.36;72.78;99814.47;6041381;23;97348;-79
2022/08/21 05:03:52;;;;;;;3.83;1.33;;;;;;;21.31;72.94;99815.81;6065631;23;96649;-78
2022/08/21 05:06:18;;;;;;;3.05;1.60;;;;;;;21.28;72.67;99813.41;6016713;23;97077;-77
2022/08/21 05:08:45;;;;;;;1.40;1.30;;;;;;;21.31;72.59;99821.16;6040287;23;101161;-79
2022/08/21 05:11:11;;;;;;;1.27;1.17;;;;;;;21.26;72.79;99821.53;6040345;23;97941;-79
2022/08/21 05:13:37;;;;;;;1.95;1.20;;;;;;;21.27;72.66;99820.59;6017891;23;96722;-79
2022/08/21 05:16:02;;;;;;;2.15;1.30;;;;;;;21.29;72.72;99818.59;6040647;23;97312;-79
2022/08/21 05:18:28;;;;;;;1.58;1.48;;;;;;;21.24;72.65;99815.50;6041278;23;101846;-79
2022/08/21 05:20:53;;;;;;;1.60;1.40;;;;;;;21.22;72.86;99834.31;6040389;23;101374;-79
2022/08/21 05:23:19;;;;;;;1.33;1.20;;;;;;;21.20;72.64;99835.41;6065781;23;96571;-79
2022/08/21 05:25:45;;;;;;;1.38;1.27;;;;;;;21.12;72.33;99816.53;6041473;23;96853;-78
2022/08/21 05:28:10;;;;;;;1.40;1.15;;;;;;;21.23;72.01;99820.00;6065010;23;101851;-79
2022/08/21 05:30:37;;;;;;;3.25;1.30;;;;;;;21.29;71.50;99823.94;6040422;23;101172;-78
2022/08/21 05:33:04;;;;;;;1.42;1.20;;;;;;;21.29;71.60;99825.78;6064748;23;97185;-79
2022/08/21 05:35:31;;;;;;;2.10;1.70;;;;;;;21.29;71.67;99839.13;6041060;23;96835;-78
2022/08/21 05:37:58;;;;;;;1.60;1.50;;;;;;;21.06;71.86;99828.63;6040229;23;101432;-79
2022/08/21 05:40:24;;;;;;;2.33;1.30;;;;;;;21.13;72.01;99843.13;6040677;23;101343;-78
2022/08/21 05:42:50;;;;;;;3.25;1.63;;;;;;;21.17;71.72;99846.34;6040201;23;96631;-78
2022/08/21 05:45:16;;;;;;;1.45;1.27;;;;;;;21.06;71.84;99844.63;6040942;23;96763;-79
2022/08/21 05:47:42;;;;;;;2.25;1.50;;;;;;;21.07;72.06;99856.97;6016989;23;101399;-78
2022/08/21 05:50:08;;;;;;;1.70;1.60;;;;;;;21.11;72.10;99854.88;6040579;23;100856;-79
2022/08/21 05:52:33;;;;;;;1.98;1.52;;;;;;;21.13;71.96;99859.13;6016401;23;96641;-76
2022/08/21 05:54:59;;;;;;;4.32;1.73;;;;;;;21.08;71.81;99850.66;6039612;23;96889;-80
2022/08/21 05:57:25;;;;;;;1.98;1.75;;;;;;;21.04;72.21;99857.25;6039763;23;101220;-80
2022/08/21 05:59:50;;;;;;;6.38;1.60;;;;;;;21.08;72.21;99861.34;6064598;23;97152;-77
2022/08/21 06:02:20;;;;;;;2.28;1.60;;;;;;;21.02;72.05;99860.03;6040638;23;96736;-80
2022/08/21 06:04:45;;;;;;;2.40;1.60;;;;;;;21.07;71.71;99866.81;6064484;23;97254;-80
2022/08/21 06:07:11;;;;;;;2.88;1.75;;;;;;;21.09;71.63;99871.06;6039104;23;97470;-80
2022/08/21 06:09:37;;;;;;;1.50;1.40;;;;;;;21.10;71.88;99878.06;6064863;23;97788;-80
2022/08/21 06:12:11;;;;;;;2.25;1.70;;;;;;;21.00;71.81;99877.13;6064324;23;96782;-80
2022/08/21 06:14:38;;;;;;;1.60;1.50;;;;;;;21.06;71.82;99892.66;6091541;23;97139;-81
2022/08/21 06:17:06;;;;;;;2.05;1.70;;;;;;;21.01;71.93;99884.19;6039592;23;97363;-80
2022/08/21 06:19:32;;;;;;;2.60;1.67;;;;;;;21.10;71.74;99888.75;6040409;23;97806;-80
2022/08/21 06:21:58;;;;;;;2.85;1.73;;;;;;;21.09;71.77;99891.53;6038502;23;97026;-80
2022/08/21 06:24:24;;;;;;;2.92;1.85;;;;;;;20.99;72.16;99894.13;6040319;23;96871;-80
2022/08/21 06:26:49;;;;;;;3.35;2.17;;;;;;;20.88;71.97;99876.34;6016108;23;100610;-81
2022/08/21 06:29:19;;;;;;;2.00;1.70;;;;;;;20.91;72.05;99900.09;6015693;23;101412;-80
2022/08/21 06:31:46;;;;;;;1.77;1.55;;;;;;;20.87;72.09;99900.50;6016393;23;97369;-79
2022/08/21 06:34:11;;;;;;;2.40;1.70;;;;;;;20.94;72.09;99912.34;6040036;23;97323;-80
2022/08/21 06:36:37;;;;;;;2.42;1.60;;;;;;;20.90;72.12;99926.91;6039831;23;100471;-79
2022/08/21 06:39:03;;;;;;;3.42;2.05;;;;;;;20.90;72.43;99934.94;6016255;23;100885;-81
2022/08/21 06:41:29;;;;;;;3.58;2.10;;;;;;;20.93;72.42;99930.19;6065101;23;96589;-80
2022/08/21 06:43:55;;;;;;;2.60;2.30;;;;;;;20.88;72.82;99932.38;6015981;23;96786;-80
2022/08/21 06:46:22;;;;;;;5.90;2.30;;;;;;;20.84;73.01;99925.59;6039791;23;101398;-80
2022/08/21 06:48:48;;;;;;;4.00;1.95;;;;;;;20.78;72.60;99929.63;6041414;23;100656;-80
2022/08/21 06:51:13;;;;;;;3.50;1.98;;;;;;;20.80;72.63;99957.03;6041400;23;96667;-80
2022/08/21 06:53:39;;;;;;;5.55;2.10;;;;;;;20.76;72.51;99955.56;6064741;23;97436;-80
2022/08/21 06:56:04;;;;;;;3.38;1.90;;;;;;;20.80;71.67;99969.53;6039114;23;100958;-79
2022/08/21 06:58:30;;;;;;;5.57;2.70;;;;;;;20.71;71.56;99973.78;6064963;23;98466;-79
2022/08/21 07:00:56;;;;;;;4.22;2.30;;;;;;;20.72;71.57;99974.63;6015936;23;97112;-80
2022/08/21 07:03:37;;;;;;;6.07;2.50;;;;;;;20.57;71.14;99960.75;6041326;23;97090;-80
2022/08/21 07:06:04;;;;;;;;;;;;;;;20.47;71.37;99971.25;6090115;23;98445;-80
2022/08/21 07:08:29;;;;;;;3.78;2.17;;;;;;;20.41;71.00;99973.56;6015402;23;99335;-80
2022/08/21 07:10:57;;;;;;;6.72;2.70;;;;;;;20.47;70.50;99962.41;6038411;23;96891;-79
2022/08/21 07:13:22;;;;;;;4.07;2.58;;;;;;;20.44;70.69;99968.00;6040930;23;96789;-80
2022/08/21 07:15:48;;;;;;;5.68;2.42;;;;;;;20.40;70.72;99977.22;6039599;23;101499;-81
2022/08/21 07:18:14;;;;;;;5.15;2.95;;;;;;;20.34;70.71;99976.72;6039487;23;101400;-79
2022/08/21 07:20:40;;;;;;;6.03;2.47;;;;;;;20.06;71.10;99939.94;6039785;23;97018;-80
2022/08/21 07:23:08;;;;;;;4.57;2.63;;;;;;;20.23;70.85;99971.41;6039835;23;96827;-81
2022/08/21 07:25:34;;;;;;;12.80;2.67;;;;;;;20.13;70.82;99951.81;6039491;23;100979;-80
2022/08/21 07:28:00;;;;;;;4.43;2.42;;;;;;;20.16;70.73;99967.56;6015187;23;99867;-80
2022/08/21 07:30:26;;;;;;;4.20;2.53;;;;;;;20.20;70.89;99974.31;6016031;23;96648;-79
2022/08/21 07:32:52;;;;;;;5.32;2.60;;;;;;;20.23;70.66;99978.56;6011572;23;97337;-80
2022/08/21 07:35:19;;;;;;;4.53;2.72;;;;;;;20.13;71.07;99970.47;6010486;23;100183;-76
2022/08/21 07:37:45;;;;;;;4.40;2.70;;;;;;;20.09;71.22;99979.66;5988104;23;101251;-76
2022/08/21 07:40:10;;;;;;;4.10;2.70;;;;;;;20.06;71.54;99967.41;6012381;23;97286;-76
2022/08/21 07:42:41;;;;;;;4.78;2.42;;;;;;;20.11;71.11;99965.25;6035953;23;97036;-76
2022/08/21 07:45:07;;;;;;;6.00;2.45;;;;;;;20.05;71.04;99963.06;6034381;23;98570;-77
2022/08/21 07:47:32;;;;;;;4.82;2.78;;;;;;;20.07;70.96;99966.47;6011870;23;98951;-77
2022/08/21 07:49:58;;;;;;;4.10;2.72;;;;;;;19.97;71.13;99973.47;6036366;23;96515;-76
2022/08/21 07:52:23;;;;;;;5.93;2.65;;;;;;;19.99;70.63;99982.19;6007838;23;97116;-75
2022/08/21 07:54:49;;;;;;;4.38;2.53;;;;;;;19.97;70.59;99992.13;6007572;23;100718;-77
2022/08/21 07:57:14;;;;;;;4.90;2.92;;;;;;;19.94;70.89;99984.38;6008922;23;97233;-76
2022/08/21 07:59:40;;;;;;;4.85;2.75;;;;;;;19.86;70.78;99965.47;6009467;23;96733;-77
2022/08/21 08:02:05;;;;;;;5.05;2.67;;;;;;;19.99;70.44;99970.72;6009020;23;96900;-76
2022/08/21 08:04:31;;;;;;;6.65;2.72;;;;;;;19.91;70.47;99976.63;6033218;23;97503;-77
2022/08/21 08:06:56;;;;;;;4.88;2.30;;;;;;;19.89;70.00;99978.53;5984451;23;100851;-75
2022/08/21 08:09:22;;;;;;;4.22;2.20;;;;;;;19.87;70.04;99976.03;6009589;23;97134;-75
2022/08/21 08:11:47;;;;;;;4.28;2.00;;;;;;;19.88;69.94;99960.88;6009764;23;97220;-76
2022/08/21 08:14:13;;;;;;;5.38;2.17;;;;;;;19.95;70.17;99978.06;6008620;23;101053;-76
2022/08/21 08:16:38;;;;;;;4.45;2.28;;;;;;;19.86;70.34;99968.97;6009816;23;101803;-75
2022/08/21 08:19:04;;;;;;;5.32;2.30;;;;;;;19.89;70.61;99984.72;6008765;23;96971;-75
2022/08/21 08:21:30;;;;;;;4.53;2.38;;;;;;;19.79;70.20;99970.44;6009736;23;97405;-75
2022/08/21 08:23:55;;;;;;;4.05;2.17;;;;;;;19.88;70.28;99990.19;6008468;23;101464;-77
2022/08/21 08:26:20;;;;;;;3.17;1.90;;;;;;;19.97;70.29;99991.28;6010964;23;101459;-76
2022/08/21 08:28:49;;;;;;;3.55;2.20;;;;;;;19.93;70.40;99990.69;6012086;23;96698;-74
2022/08/21 08:31:14;;;;;;;3.30;1.80;;;;;;;19.96;69.78;99990.44;6018445;23;96945;-75
2022/08/21 08:33:40;;;;;;;2.85;1.90;;;;;;;20.00;70.03;99988.38;6041138;23;97704;-75
2022/08/21 08:36:12;;;;;;;2.80;2.00;;;;;;;19.78;70.03;99979.41;6016752;23;100974;-77
2022/08/21 08:38:38;;;;;;;3.63;2.10;;;;;;;19.79;70.29;99988.25;6041756;23;96656;-78
2022/08/21 08:41:18;;;;;;;6.00;2.58;;;;;;;19.76;69.75;99984.00;6090178;23;96710;-78
2022/08/21 08:43:55;;;;;;;4.23;2.10;;;;;;;19.77;69.86;99996.34;6064849;23;97463;-79
2022/08/21 08:46:35;;;;;;;5.15;1.85;;;;;;;19.92;69.69;99999.63;6039555;23;101181;-79
2022/08/21 08:49:14;;;;;;;4.32;1.80;;;;;;;19.97;69.11;99994.78;6013944;23;97163;-79
2022/08/21 08:51:47;;;;;;;3.83;2.30;;;;;;;19.95;69.14;99994.03;6040177;23;97050;-78
2022/08/21 08:54:17;;;;;;;6.53;2.28;;;;;;;19.99;68.94;100002.66;6038280;23;101419;-83
2022/08/21 08:56:44;;;;;;;6.97;2.50;;;;;;;20.00;68.76;99985.72;6015524;23;101170;-82
2022/08/21 08:59:23;;;;;;;3.58;2.10;;;;;;;19.96;69.17;99998.44;6039694;23;97172;-79
2022/08/21 09:01:48;;;;;;;3.05;1.90;;;;;;;20.07;68.91;99986.91;6014686;23;96816;-81
2022/08/21 09:04:20;;;;;;;5.30;2.53;;;;;;;20.15;69.03;99995.16;6037728;23;100932;-80
2022/08/21 09:06:49;;;;;;;9.48;2.90;;;;;;;20.11;69.08;99997.22;6036911;23;97507;-81
2022/08/21 09:09:45;;;;;;;4.95;2.20;;;;;;;20.14;69.47;99998.78;6088045;23;97100;-79
2022/08/21 09:12:45;;;;;;;3.83;2.30;;;;;;;20.12;68.85;99996.22;6037500;23;97299;-80
2022/08/21 09:15:32;;;;;;;4.03;2.35;;;;;;;20.15;68.44;99997.81;6035998;23;101368;-80
2022/08/21 09:18:03;;;;;;;4.55;2.83;;;;;;;20.23;67.35;99984.72;6036767;23;99524;-79
2022/08/21 09:20:40;;;;;;;5.07;2.33;;;;;;;20.45;66.75;100007.00;6087373;23;97218;-80
2022/08/21 09:23:31;;;;;;;3.65;2.30;;;;;;;20.41;65.87;100002.91;6037117;23;97610;-79
2022/08/21 09:26:16;;;;;;;4.03;2.28;;;;;;;20.40;65.78;100010.03;6055866;23;100757;-79
2022/08/21 09:28:43;;;;;;;3.83;2.20;;;;;;;20.42;66.02;100013.44;6034715;23;101433;-79
2022/08/21 09:31:25;;;;;;;5.35;2.50;;;;;;;20.34;66.09;100014.06;6026960;23;96827;-77
2022/08/21 09:34:00;;;;;;;8.18;2.60;;;;;;;20.32;66.09;100009.81;6006787;23;97432;-78
2022/08/21 09:36:35;;;;;;;5.35;2.45;;;;;;;20.32;66.05;100007.97;6005653;23;101501;-79
2022/08/21 09:39:00;;;;;;;3.97;2.13;;;;;;;20.09;66.18;99999.13;6006042;23;101105;-75
2022/08/21 09:41:34;;;;;;;3.38;2.25;;;;;;;20.05;66.46;100007.50;6005682;23;96877;-75
2022/08/21 09:43:59;;;;;;;3.08;2.10;;;;;;;20.14;66.03;100004.13;6004977;23;97257;-79
2022/08/21 09:46:26;;;;;;;3.45;2.13;;;;;;;20.03;65.71;100004.94;6053521;23;98462;-79
2022/08/21 09:48:58;;;;;;;4.22;2.00;;;;;;;19.95;66.34;100006.53;5981209;23;101089;-78
2022/08/21 09:51:28;;;;;;;5.15;2.17;;;;;;;19.97;66.62;100017.91;6029005;23;97329;-79
2022/08/21 09:54:12;;;;;;;4.30;2.00;;;;;;;19.89;66.21;100015.84;6005109;23;96821;-79
2022/08/21 09:59:48;;;;;;;6.05;2.00;;;;;;;19.82;66.73;100003.97;5988065;23;101438;-79
2022/08/21 10:02:23;;;;;;;2.83;1.98;;;;;;;19.86;66.30;100013.41;6028184;23;97519;-79
2022/08/21 10:04:55;;;;;;;2.33;1.58;;;;;;;19.82;66.23;100002.16;6006434;23;97293;-78
2022/08/21 10:07:22;;;;;;;3.97;1.90;;;;;;;19.80;66.55;100009.41;6004934;23;97958;-78
2022/08/21 10:10:07;;;;;;;4.35;1.70;;;;;;;19.72;66.56;99998.50;6005659;23;101591;-78
2022/08/21 10:12:35;;;;;;;3.42;1.70;;;;;;;19.91;66.64;100019.25;6003579;23;97802;-78
2022/08/21 10:15:06;;;;;;;2.97;1.65;;;;;;;19.93;66.18;100017.31;6006150;23;96808;-78
2022/08/21 10:17:37;;;;;;;4.18;1.75;;;;;;;19.82;66.27;100022.63;6029506;23;98628;-78
2022/08/21 10:20:20;;;;;;;2.03;1.45;;;;;;;19.90;66.50;100026.38;6029761;23;97912;-78
2022/08/21 10:23:20;;;;;;;2.55;1.80;;;;;;;19.79;66.02;100013.06;6030363;23;97355;-79
2022/08/21 10:26:00;;;;;;;4.87;2.07;;;;;;;19.81;65.70;100023.56;6005825;23;96938;-78
2022/08/21 10:28:44;;;;;;;3.38;1.90;;;;;;;19.61;65.96;100006.47;5980068;23;101543;-80
2022/08/21 10:31:21;;;;;;;5.78;1.92;;;;;;;19.58;66.60;100010.19;6012195;23;101463;-78
2022/08/21 10:33:59;;;;;;;3.58;1.92;;;;;;;19.74;66.63;100025.03;6033212;23;97435;-78
2022/08/21 10:36:35;;;;;;;3.20;1.75;;;;;;;19.92;66.54;100015.59;6033803;23;97118;-81
2022/08/21 10:39:16;;;;;;;5.57;2.28;;;;;;;19.85;66.33;100019.72;6059825;23;97950;-78
2022/08/21 10:41:48;;;;;;;;;;;;;;;19.90;66.83;100014.88;6034532;23;97832;-78
2022/08/21 10:44:38;;;;;;;2.75;1.70;;;;;;;20.02;66.43;100008.59;6058049;23;97199;-79
2022/08/21 10:47:09;;;;;;;4.13;1.90;;;;;;;20.10;66.20;99998.19;6034090;23;97236;-79
2022/08/21 10:50:13;;;;;;;4.43;1.90;;;;;;;20.14;66.23;100009.44;6009210;23;100693;-80
2022/08/21 10:53:04;;;;;;;5.80;2.70;;;;;;;20.07;66.64;100013.56;6003435;23;101679;-80
2022/08/21 10:55:44;;;;;;;5.22;2.60;;;;;;;19.98;66.08;99995.63;6059098;23;96852;-79
2022/08/21 10:58:14;;;;;;;4.68;1.60;;;;;;;20.03;67.05;99993.47;6033530;23;97176;-79
2022/08/21 11:00:48;;;;;;;4.63;2.35;;;;;;;20.13;66.62;100000.63;6032435;23;97558;-79
2022/08/21 11:03:17;;;;;;;5.03;2.10;;;;;;;20.19;66.59;100001.06;6056260;23;100978;-80
2022/08/21 11:05:54;;;;;;;3.33;2.03;;;;;;;20.28;66.35;99997.72;6027571;23;97078;-80
2022/08/21 11:08:20;;;;;;;5.20;2.50;;;;;;;20.37;65.99;100012.97;6034080;23;97344;-80
2022/08/21 11:11:05;;;;;;;5.05;2.10;;;;;;;20.22;65.45;99995.53;6058750;23;101664;-80
2022/08/21 11:13:45;;;;;;;5.20;2.13;;;;;;;20.27;65.16;100010.16;6031741;23;101465;-80
2022/08/21 11:16:14;;;;;;;4.70;2.88;;;;;;;20.32;65.26;100009.81;6033954;23;97362;-80
2022/08/21 11:18:58;;;;;;;4.47;2.35;;;;;;;20.34;65.22;100014.06;6034691;23;97443;-80
2022/08/21 11:21:48;;;;;;;3.80;2.35;;;;;;;20.27;65.51;100025.31;6034344;23;97925;-79
2022/08/21 11:24:32;;;;;;;6.18;2.13;;;;;;;20.32;65.52;100005.31;6083287;23;97861;-82
2022/08/21 11:27:16;;;;;;;2.95;2.20;;;;;;;20.37;65.37;100006.78;6034327;23;97184;-79
2022/08/21 11:29:44;;;;;;;4.63;2.05;;;;;;;20.24;65.06;100007.75;6036056;23;97271;-75
2022/08/21 11:32:45;;;;;;;4.40;2.53;;;;;;;20.27;64.32;100014.66;6006767;23;101198;-80
2022/08/21 11:35:14;;;;;;;3.72;2.58;;;;;;;20.27;64.52;100022.63;6030915;23;100868;-79
2022/08/21 11:38:01;;;;;;;3.95;2.25;;;;;;;20.19;64.09;100017.94;6030525;23;97037;-82
2022/08/21 11:40:51;;;;;;;3.67;2.15;;;;;;;20.11;63.85;100020.34;6055007;23;96981;-84